Time;durP1;ratioP1;P1;durP2;ratioP2;P2;SDS_P1;SDS_P2;PMS_P1;PMS_P2;Temp;Humidity;BMP_temperature;BMP_pressure;BME280_temperature;BME280_humidity;BME280_pressure;Samples;Min_cycle;Max_cycle;Signal;HPM_P1;HPM_P2
2023/05/26 00:02:07;;;;;;;4.72;4.30;;;16.20;99.90;;;;;;4754720;30;20046;-66
2023/05/26 00:04:33;;;;;;;4.40;3.70;;;16.20;99.90;;;;;;4749948;30;20119;-63
2023/05/26 00:06:58;;;;;;;5.80;4.18;;;16.20;99.90;;;;;;4748166;30;20055;-63
2023/05/26 00:09:25;;;;;;;4.80;3.75;;;16.20;99.90;;;;;;4751912;30;20142;-63
2023/05/26 00:11:50;;;;;;;4.50;4.10;;;16.20;99.90;;;;;;4754393;30;20031;-63
2023/05/26 00:14:16;;;;;;;4.28;3.88;;;16.10;99.90;;;;;;4747275;30;20494;-63
2023/05/26 00:16:43;;;;;;;5.75;4.55;;;16.10;99.90;;;;;;4756724;30;20051;-63
2023/05/26 00:19:08;;;;;;;4.07;3.78;;;16.10;99.90;;;;;;4756276;30;20025;-63
2023/05/26 00:21:38;;;;;;;4.68;3.90;;;16.10;99.90;;;;;;4754658;30;20031;-63
2023/05/26 00:24:04;;;;;;;4.35;4.00;;;16.10;99.90;;;;;;4750113;30;20579;-63
2023/05/26 00:26:29;;;;;;;6.47;3.30;;;16.10;99.90;;;;;;4753167;30;20114;-63
2023/05/26 00:28:55;;;;;;;4.03;3.70;;;16.10;99.90;;;;;;4751733;30;20032;-62
2023/05/26 00:31:21;;;;;;;4.30;3.90;;;16.10;99.90;;;;;;4754518;30;20043;-63
2023/05/26 00:33:46;;;;;;;4.78;4.38;;;16.10;99.90;;;;;;4752605;30;20086;-62
2023/05/26 00:36:12;;;;;;;5.63;4.20;;;16.20;99.90;;;;;;4757586;30;20573;-63
2023/05/26 00:38:38;;;;;;;3.83;3.53;;;16.20;99.90;;;;;;4749952;30;20047;-62
2023/05/26 00:41:04;;;;;;;4.40;4.00;;;16.20;99.90;;;;;;4750752;30;20486;-62
2023/05/26 00:43:30;;;;;;;5.68;4.25;;;16.20;99.90;;;;;;4757128;30;20037;-62
2023/05/26 00:45:55;;;;;;;4.40;4.00;;;16.20;99.90;;;;;;4750522;30;20126;-62
2023/05/26 00:48:21;;;;;;;4.97;4.25;;;16.20;99.90;;;;;;4751772;30;20035;-62
2023/05/26 00:50:47;;;;;;;4.75;4.25;;;16.20;99.90;;;;;;4749880;30;20066;-62
2023/05/26 00:53:13;;;;;;;4.72;4.32;;;16.20;99.90;;;;;;4753463;30;20056;-62
2023/05/26 00:55:41;;;;;;;4.55;4.15;;;16.20;99.90;;;;;;4752122;30;20039;-62
2023/05/26 00:58:07;;;;;;;4.80;3.83;;;16.20;99.90;;;;;;4746293;30;20047;-63
2023/05/26 01:00:33;;;;;;;4.10;3.58;;;16.20;99.90;;;;;;4748042;30;20044;-66
2023/05/26 01:02:59;;;;;;;6.18;4.22;;;16.20;99.90;;;;;;4746981;30;20558;-65
2023/05/26 01:05:25;;;;;;;4.20;3.80;;;16.10;99.90;;;;;;4752224;30;20043;-65
2023/05/26 01:07:51;;;;;;;6.18;3.70;;;16.10;99.90;;;;;;4746298;30;20060;-65
2023/05/26 01:10:17;;;;;;;4.03;3.67;;;16.00;99.90;;;;;;4736933;30;20071;-65
2023/05/26 01:12:49;;;;;;;4.82;3.83;;;16.00;99.90;;;;;;4754457;30;20071;-65
2023/05/26 01:15:26;;;;;;;4.38;3.90;;;16.00;99.90;;;;;;4755126;30;20056;-65
2023/05/26 01:18:16;;;;;;;5.80;4.07;;;16.00;99.90;;;;;;4754014;30;20135;-66
2023/05/26 01:21:07;;;;;;;4.88;4.47;;;16.00;99.90;;;;;;4743955;30;20027;-62
2023/05/26 01:23:51;;;;;;;4.38;4.07;;;15.90;99.90;;;;;;4740982;29;20656;-62
2023/05/26 01:26:31;;;;;;;5.28;4.10;;;15.90;99.90;;;;;;4751563;30;20667;-62
2023/05/26 01:29:08;;;;;;;5.70;4.40;;;15.90;99.90;;;;;;4737767;30;20051;-62
2023/05/26 01:31:34;;;;;;;4.57;3.90;;;15.80;99.90;;;;;;4736888;30;20162;-62
2023/05/26 01:34:01;;;;;;;7.95;4.03;;;15.80;99.90;;;;;;4748829;30;20055;-62
2023/05/26 01:36:28;;;;;;;4.85;4.30;;;15.90;99.90;;;;;;4745198;30;20366;-62
2023/05/26 01:38:55;;;;;;;6.15;4.40;;;15.90;99.90;;;;;;4747453;30;20039;-62
2023/05/26 01:41:28;;;;;;;7.30;4.70;;;15.90;99.90;;;;;;4754320;30;20123;-62
2023/05/26 01:44:14;;;;;;;5.72;3.45;;;15.80;99.90;;;;;;4729151;30;20525;-62
2023/05/26 01:47:01;;;;;;;4.60;4.20;;;15.70;99.90;;;;;;4754858;29;20036;-61
2023/05/26 01:49:30;;;;;;;4.05;3.65;;;15.70;99.90;;;;;;4749084;30;20174;-62
2023/05/26 01:52:07;;;;;;;4.80;4.38;;;15.80;99.90;;;;;;4747776;30;20032;-62
2023/05/26 01:54:43;;;;;;;4.72;3.40;;;15.70;99.90;;;;;;4751595;30;20060;-62
2023/05/26 01:57:10;;;;;;;4.65;4.25;;;15.70;99.90;;;;;;4748460;30;20035;-62
2023/05/26 01:59:36;;;;;;;4.47;4.07;;;15.70;99.90;;;;;;4748101;30;20316;-65
2023/05/26 02:02:01;;;;;;;5.50;4.40;;;15.60;99.90;;;;;;4745108;30;20105;-65
2023/05/26 02:04:27;;;;;;;7.03;4.47;;;15.60;99.90;;;;;;4740897;30;20043;-65
2023/05/26 02:06:54;;;;;;;5.35;3.83;;;15.60;99.90;;;;;;4748713;30;20090;-65
2023/05/26 02:09:20;;;;;;;5.50;4.45;;;15.60;99.90;;;;;;4751599;30;20088;-65
2023/05/26 02:11:47;;;;;;;5.43;4.22;;;15.60;99.90;;;;;;4748861;30;20040;-65
2023/05/26 02:14:13;;;;;;;5.65;4.32;;;15.60;99.90;;;;;;4752547;30;20043;-65
2023/05/26 02:16:39;;;;;;;7.75;4.43;;;15.60;99.90;;;;;;4751893;30;20367;-66
2023/05/26 02:19:07;;;;;;;4.65;3.55;;;15.50;99.90;;;;;;4753215;30;20554;-64
2023/05/26 02:21:33;;;;;;;4.13;3.22;;;15.50;99.90;;;;;;4748525;30;20039;-66
2023/05/26 02:23:59;;;;;;;3.53;3.22;;;15.40;99.90;;;;;;4754807;30;20100;-65
2023/05/26 02:26:25;;;;;;;5.35;3.05;;;15.40;99.90;;;;;;4753981;30;20214;-65
2023/05/26 02:28:51;;;;;;;3.67;3.38;;;15.30;99.90;;;;;;4757128;30;20924;-65
2023/05/26 02:31:16;;;;;;;4.97;3.03;;;15.30;99.90;;;;;;4750516;30;20044;-65
2023/05/26 02:33:42;;;;;;;5.53;3.03;;;15.20;99.90;;;;;;4755331;30;20048;-65
2023/05/26 02:36:08;;;;;;;9.52;3.30;;;15.20;99.90;;;;;;4746682;30;20088;-65
2023/05/26 02:38:33;;;;;;;4.18;2.80;;;15.20;99.90;;;;;;4745466;30;20119;-65
2023/05/26 02:40:59;;;;;;;3.47;2.75;;;15.20;99.90;;;;;;4752553;30;20883;-65
2023/05/26 02:43:25;;;;;;;4.60;2.65;;;15.20;99.90;;;;;;4748573;30;20468;-65
2023/05/26 02:45:50;;;;;;;4.03;3.13;;;15.20;99.90;;;;;;4751939;30;20040;-65
2023/05/26 02:48:17;;;;;;;3.50;3.20;;;15.10;99.90;;;;;;4755831;30;20032;-65
2023/05/26 02:50:42;;;;;;;3.47;3.17;;;15.10;99.90;;;;;;4748810;30;20057;-65
2023/05/26 02:53:08;;;;;;;3.33;2.90;;;15.00;99.90;;;;;;4739024;30;20040;-65
2023/05/26 02:55:33;;;;;;;5.18;3.33;;;14.90;99.90;;;;;;4743759;30;20074;-62
2023/05/26 02:58:01;;;;;;;4.07;3.45;;;14.70;99.90;;;;;;4755390;30;20153;-62
2023/05/26 03:00:27;;;;;;;4.30;3.88;;;14.70;99.90;;;;;;4753365;30;20035;-62
2023/05/26 03:02:52;;;;;;;6.38;3.83;;;14.80;99.90;;;;;;4753644;30;20054;-62
2023/05/26 03:05:18;;;;;;;4.20;3.80;;;14.80;99.90;;;;;;4748323;30;20051;-62
2023/05/26 03:07:44;;;;;;;4.28;3.80;;;14.80;99.90;;;;;;4755533;30;20056;-62
2023/05/26 03:10:10;;;;;;;4.78;3.83;;;14.80;99.90;;;;;;4749170;30;20444;-62
2023/05/26 03:12:36;;;;;;;3.88;3.47;;;14.80;99.90;;;;;;4743310;30;20127;-62
2023/05/26 03:15:03;;;;;;;8.77;4.13;;;14.80;99.90;;;;;;4753964;30;20127;-62
2023/05/26 03:17:29;;;;;;;8.65;3.72;;;14.90;99.90;;;;;;4752504;30;20037;-62
2023/05/26 03:20:01;;;;;;;7.50;3.70;;;15.00;99.90;;;;;;5030139;28;21231;-62
2023/05/26 03:22:26;;;;;;;4.25;3.05;;;15.00;99.90;;;;;;5007329;28;20160;-62
2023/05/26 03:24:52;;;;;;;2.60;2.40;;;15.10;99.90;;;;;;5010532;28;20070;-62
2023/05/26 03:27:18;;;;;;;3.92;3.55;;;15.00;99.90;;;;;;5009117;28;20030;-62
2023/05/26 03:29:44;;;;;;;3.85;3.53;;;15.00;99.90;;;;;;4992528;28;20038;-62
2023/05/26 03:32:10;;;;;;;3.70;3.25;;;14.90;99.90;;;;;;4998393;28;20045;-62
2023/05/26 03:34:39;;;;;;;5.88;3.58;;;14.90;99.90;;;;;;5006719;28;20162;-62
2023/05/26 03:37:06;;;;;;;3.65;3.25;;;14.90;99.90;;;;;;5010214;28;20113;-62
2023/05/26 03:39:31;;;;;;;3.40;3.10;;;14.90;99.90;;;;;;5004146;28;20126;-62
2023/05/26 03:41:57;;;;;;;5.80;2.97;;;14.90;99.90;;;;;;5008214;28;20048;-63
2023/05/26 03:44:23;;;;;;;7.55;3.80;;;15.00;99.90;;;;;;5011757;28;20112;-62
2023/05/26 03:46:49;;;;;;;4.40;4.00;;;15.00;99.90;;;;;;5008061;28;20025;-62
2023/05/26 03:49:15;;;;;;;4.60;4.03;;;15.00;99.90;;;;;;4996563;28;20025;-63
2023/05/26 03:51:40;;;;;;;4.13;3.75;;;15.00;99.90;;;;;;5010023;28;20037;-62
2023/05/26 03:54:06;;;;;;;5.80;3.10;;;15.00;99.90;;;;;;5009483;28;20457;-65
2023/05/26 03:56:32;;;;;;;5.53;3.38;;;15.00;99.90;;;;;;5009419;28;20803;-65
2023/05/26 03:58:57;;;;;;;3.28;2.97;;;15.00;99.90;;;;;;5009775;28;20045;-65
2023/05/26 04:01:25;;;;;;;4.68;4.15;;;15.00;99.90;;;;;;4997253;28;20486;-65
2023/05/26 04:03:51;;;;;;;4.70;3.92;;;15.10;99.90;;;;;;5005816;28;20041;-66
2023/05/26 04:06:16;;;;;;;5.63;4.60;;;15.10;99.90;;;;;;5006571;28;20030;-65
2023/05/26 04:08:42;;;;;;;4.80;4.25;;;15.20;99.90;;;;;;5006592;28;20402;-65
2023/05/26 04:11:08;;;;;;;5.43;3.63;;;15.30;99.90;;;;;;5008255;28;20122;-65
2023/05/26 04:13:38;;;;;;;3.65;3.25;;;15.40;99.90;;;;;;5013212;28;20037;-62
2023/05/26 04:16:04;;;;;;;5.10;3.90;;;15.50;99.90;;;;;;5003786;28;20505;-62
2023/05/26 04:18:29;;;;;;;4.53;3.85;;;15.50;99.90;;;;;;4999260;28;20058;-62
2023/05/26 04:20:55;;;;;;;4.25;3.85;;;15.60;99.90;;;;;;5003906;28;20026;-62
2023/05/26 04:23:21;;;;;;;5.35;4.72;;;15.70;99.90;;;;;;5010522;28;20148;-62
2023/05/26 04:25:47;;;;;;;4.80;3.92;;;15.80;99.90;;;;;;5006474;28;20056;-62
2023/05/26 04:28:14;;;;;;;4.32;3.92;;;15.80;99.90;;;;;;5012159;28;20030;-62
2023/05/26 04:30:40;;;;;;;22.63;12.82;;;15.90;99.90;;;;;;4996842;28;20021;-66
2023/05/26 04:33:07;;;;;;;5.47;4.22;;;15.90;99.90;;;;;;4996437;28;20369;-65
2023/05/26 04:35:33;;;;;;;7.38;4.63;;;15.90;99.90;;;;;;4991363;28;20073;-65
2023/05/26 04:37:59;;;;;;;4.13;3.58;;;16.00;99.90;;;;;;4989594;28;20418;-64
2023/05/26 04:40:25;;;;;;;7.43;4.63;;;16.10;99.90;;;;;;4991203;28;20045;-64
2023/05/26 04:42:51;;;;;;;9.15;6.20;;;16.20;99.90;;;;;;4997772;28;20496;-64
2023/05/26 04:45:17;;;;;;;5.88;4.38;;;16.30;99.90;;;;;;4999184;28;20025;-64
2023/05/26 04:47:42;;;;;;;5.00;4.50;;;16.40;99.90;;;;;;4990324;28;20105;-65
2023/05/26 04:50:12;;;;;;;7.38;4.63;;;16.50;99.90;;;;;;4992331;28;20033;-64
2023/05/26 04:52:40;;;;;;;6.75;5.32;;;16.60;99.90;;;;;;4991896;28;20536;-64
2023/05/26 04:55:07;;;;;;;8.25;4.85;;;16.70;99.90;;;;;;4987499;28;20076;-65
2023/05/26 04:57:33;;;;;;;8.63;5.32;;;16.80;99.90;;;;;;4995163;28;20322;-65
2023/05/26 04:59:58;;;;;;;9.70;5.32;;;16.90;99.90;;;;;;4993956;28;20037;-64
2023/05/26 05:02:24;;;;;;;6.15;5.55;;;17.00;99.90;;;;;;4993169;28;20035;-64
2023/05/26 05:04:50;;;;;;;6.00;4.93;;;17.10;99.90;;;;;;4988820;28;20081;-64
2023/05/26 05:07:16;;;;;;;5.68;5.15;;;17.20;99.90;;;;;;4990445;28;20031;-64
2023/05/26 05:09:41;;;;;;;6.15;5.00;;;17.40;99.90;;;;;;4990141;28;20104;-62
2023/05/26 05:12:07;;;;;;;8.88;5.32;;;17.50;99.90;;;;;;4987755;28;20042;-62
2023/05/26 05:14:33;;;;;;;15.25;6.97;;;17.60;99.90;;;;;;4990079;28;20251;-63
2023/05/26 05:16:59;;;;;;;9.75;5.00;;;17.70;99.90;;;;;;4991599;28;20607;-62
2023/05/26 05:19:24;;;;;;;8.48;5.32;;;17.90;99.90;;;;;;4996068;28;20038;-63
2023/05/26 05:21:50;;;;;;;6.15;5.50;;;18.00;99.90;;;;;;4992764;28;20033;-62
2023/05/26 05:24:16;;;;;;;6.82;5.30;;;18.10;99.90;;;;;;4987750;28;20026;-63
2023/05/26 05:26:42;;;;;;;9.13;6.63;;;18.30;99.90;;;;;;4991913;28;20462;-64
2023/05/26 05:29:08;;;;;;;6.65;6.05;;;18.40;99.90;;;;;;4982019;28;20050;-62
2023/05/26 05:31:33;;;;;;;10.10;6.30;;;18.50;99.90;;;;;;4990981;28;20399;-63
2023/05/26 05:33:59;;;;;;;9.98;6.28;;;18.60;99.90;;;;;;4984305;28;20426;-64
2023/05/26 05:36:25;;;;;;;8.52;6.32;;;18.70;99.90;;;;;;4984019;28;20040;-63
2023/05/26 05:38:51;;;;;;;10.57;6.53;;;18.90;99.90;;;;;;4975850;28;20079;-63
2023/05/26 05:41:17;;;;;;;8.10;5.78;;;19.00;99.90;;;;;;4983721;28;20228;-63
2023/05/26 05:43:43;;;;;;;9.65;6.82;;;19.10;99.90;;;;;;4980575;28;20095;-63
2023/05/26 05:46:09;;;;;;;7.28;5.68;;;19.20;99.90;;;;;;4983030;28;20124;-63
2023/05/26 05:48:34;;;;;;;8.13;5.75;;;19.20;99.90;;;;;;4993256;28;20033;-63
2023/05/26 05:51:00;;;;;;;7.03;5.97;;;19.30;99.90;;;;;;4989547;28;20049;-63
2023/05/26 05:53:26;;;;;;;8.13;6.05;;;19.40;99.90;;;;;;4991337;28;20518;-63
2023/05/26 05:55:52;;;;;;;6.63;5.95;;;19.40;99.90;;;;;;4990185;28;20589;-63
2023/05/26 05:58:17;;;;;;;7.95;6.00;;;19.50;99.90;;;;;;4996054;28;20120;-63
2023/05/26 06:00:43;;;;;;;6.75;6.07;;;19.60;99.90;;;;;;4994295;28;20543;-63
2023/05/26 06:03:09;;;;;;;6.07;5.47;;;19.60;99.90;;;;;;4992242;28;20490;-63
2023/05/26 06:05:35;;;;;;;6.35;5.70;;;19.70;99.90;;;;;;4992967;28;20034;-64
2023/05/26 06:08:01;;;;;;;9.43;5.88;;;19.80;99.90;;;;;;4996544;28;20028;-66
2023/05/26 06:10:29;;;;;;;7.80;6.05;;;19.80;99.90;;;;;;4986928;28;20026;-66
2023/05/26 06:12:55;;;;;;;6.57;4.97;;;19.90;99.90;;;;;;4989935;28;20427;-66
2023/05/26 06:15:20;;;;;;;8.57;6.15;;;20.00;99.90;;;;;;5000814;28;20017;-66
2023/05/26 06:17:46;;;;;;;7.85;5.82;;;20.10;99.90;;;;;;4995456;28;20044;-66
2023/05/26 06:20:12;;;;;;;6.30;5.75;;;20.10;99.90;;;;;;4990377;28;20066;-66
2023/05/26 06:22:38;;;;;;;10.38;6.15;;;20.10;99.90;;;;;;4996176;28;20022;-66
2023/05/26 06:25:04;;;;;;;7.05;5.97;;;20.30;99.90;;;;;;4999250;28;20201;-66
2023/05/26 06:27:30;;;;;;;6.30;5.68;;;20.30;99.90;;;;;;4994920;28;20423;-63
2023/05/26 06:29:56;;;;;;;7.13;5.65;;;20.30;99.90;;;;;;4986284;28;20124;-63
2023/05/26 06:32:22;;;;;;;7.80;5.70;;;20.40;99.90;;;;;;4980399;28;20038;-63
2023/05/26 06:34:47;;;;;;;12.23;6.13;;;20.40;99.90;;;;;;4994778;28;20038;-63
2023/05/26 06:37:13;;;;;;;10.25;5.90;;;20.40;99.90;;;;;;4997274;28;20548;-64
2023/05/26 06:39:40;;;;;;;7.47;6.07;;;20.40;99.90;;;;;;4993473;28;20061;-63
2023/05/26 06:42:05;;;;;;;7.38;6.10;;;20.40;99.90;;;;;;4991172;28;20046;-63
2023/05/26 06:44:33;;;;;;;6.97;5.60;;;20.50;99.90;;;;;;4994677;28;20083;-63
2023/05/26 06:46:58;;;;;;;6.55;5.72;;;20.50;99.90;;;;;;4996652;28;20053;-63
2023/05/26 06:49:24;;;;;;;6.35;5.50;;;20.50;99.90;;;;;;4984713;28;20034;-63
2023/05/26 06:51:50;;;;;;;7.00;5.50;;;20.70;99.90;;;;;;4977604;28;20300;-62
2023/05/26 06:54:15;;;;;;;6.45;5.80;;;20.80;99.90;;;;;;4977866;28;20104;-64
2023/05/26 06:56:41;;;;;;;6.95;6.20;;;20.90;99.90;;;;;;4983264;28;20470;-63
2023/05/26 06:59:07;;;;;;;10.45;6.60;;;20.90;99.90;;;;;;4990596;28;20242;-64
2023/05/26 07:01:33;;;;;;;6.78;6.07;;;20.90;99.90;;;;;;4981083;28;20048;-63
2023/05/26 07:03:58;;;;;;;6.90;5.88;;;21.00;99.90;;;;;;4987877;28;20038;-63
2023/05/26 07:06:24;;;;;;;6.70;5.80;;;21.00;99.90;;;;;;4989883;28;20927;-63
2023/05/26 07:08:50;;;;;;;8.75;6.45;;;21.00;99.90;;;;;;4985557;28;20486;-64
2023/05/26 07:11:15;;;;;;;7.53;6.82;;;21.10;99.90;;;;;;4984194;28;20118;-63
2023/05/26 07:13:41;;;;;;;6.28;5.68;;;21.10;99.90;;;;;;4985308;28;20542;-63
2023/05/26 07:16:07;;;;;;;8.95;6.38;;;21.10;99.90;;;;;;4980659;28;20686;-63
2023/05/26 07:18:33;;;;;;;8.13;5.72;;;21.20;99.90;;;;;;4994478;28;20053;-63
2023/05/26 07:20:58;;;;;;;9.32;5.93;;;21.20;99.90;;;;;;4989266;28;20035;-63
2023/05/26 07:23:24;;;;;;;7.15;5.80;;;21.30;99.90;;;;;;4997092;28;20087;-66
2023/05/26 07:25:50;;;;;;;9.20;6.63;;;21.50;99.90;;;;;;4992050;28;20026;-66
2023/05/26 07:28:15;;;;;;;9.07;5.70;;;21.50;99.90;;;;;;4995664;28;20442;-66
2023/05/26 07:30:41;;;;;;;7.55;6.75;;;21.40;99.90;;;;;;4984941;28;20026;-66
2023/05/26 07:33:07;;;;;;;6.75;6.05;;;21.40;99.90;;;;;;4989026;28;20041;-66
2023/05/26 07:35:32;;;;;;;6.45;5.78;;;21.50;99.90;;;;;;4989800;28;20026;-66
2023/05/26 07:37:59;;;;;;;8.02;6.55;;;21.60;99.90;;;;;;4996631;28;20052;-66
2023/05/26 07:40:24;;;;;;;7.03;6.32;;;21.70;99.90;;;;;;4994342;28;20100;-73
2023/05/26 07:42:50;;;;;;;6.57;5.97;;;21.60;99.90;;;;;;4991230;28;20501;-63
2023/05/26 07:45:16;;;;;;;8.07;5.90;;;21.60;99.90;;;;;;4995059;28;20080;-63
2023/05/26 07:47:41;;;;;;;7.95;6.38;;;21.70;99.90;;;;;;4988395;28;20033;-63
2023/05/26 07:50:07;;;;;;;9.65;5.70;;;21.80;99.90;;;;;;4970106;28;20091;-63
2023/05/26 07:52:33;;;;;;;8.40;6.43;;;21.80;99.90;;;;;;4973293;28;20111;-63
2023/05/26 07:54:59;;;;;;;9.85;6.82;;;21.90;99.90;;;;;;4977422;28;20364;-62
2023/05/26 07:57:24;;;;;;;7.90;6.57;;;21.90;99.90;;;;;;4977781;28;20035;-63
2023/05/26 07:59:50;;;;;;;7.15;6.28;;;21.90;99.90;;;;;;4986534;28;20039;-63
2023/05/26 08:02:16;;;;;;;9.30;6.60;;;22.00;99.90;;;;;;4987692;28;20056;-65
2023/05/26 08:04:42;;;;;;;7.97;6.35;;;22.00;99.90;;;;;;4970293;28;20109;-65
2023/05/26 08:07:07;;;;;;;7.13;6.00;;;22.00;99.90;;;;;;4982890;28;20037;-65
2023/05/26 08:09:33;;;;;;;6.75;6.15;;;22.00;99.90;;;;;;5000386;28;20438;-65
2023/05/26 08:11:59;;;;;;;8.65;6.22;;;22.00;99.90;;;;;;4995286;28;20033;-65
2023/05/26 08:14:26;;;;;;;7.65;6.25;;;22.00;99.90;;;;;;4998540;28;20049;-65
2023/05/26 08:16:53;;;;;;;8.57;6.63;;;22.00;99.90;;;;;;4987723;28;20038;-65
2023/05/26 08:19:18;;;;;;;7.07;6.38;;;22.10;99.90;;;;;;4992796;28;20968;-63
2023/05/26 08:21:44;;;;;;;6.65;6.05;;;22.10;99.90;;;;;;4979485;28;20103;-63
2023/05/26 08:24:10;;;;;;;8.40;6.25;;;22.10;99.90;;;;;;4984319;28;20418;-63
2023/05/26 08:26:35;;;;;;;8.20;6.05;;;22.20;99.90;;;;;;4984606;28;20022;-63
2023/05/26 08:29:01;;;;;;;8.90;6.70;;;22.30;99.90;;;;;;4985816;28;20238;-63
2023/05/26 08:31:26;;;;;;;6.95;6.25;;;22.30;99.90;;;;;;4976170;28;20344;-63
2023/05/26 08:33:53;;;;;;;7.05;6.07;;;22.30;99.90;;;;;;4974489;28;20521;-63
2023/05/26 08:36:19;;;;;;;8.10;6.13;;;22.50;99.90;;;;;;4990046;28;20038;-63
2023/05/26 08:38:45;;;;;;;7.22;6.30;;;22.60;99.90;;;;;;4986336;28;20127;-64
2023/05/26 08:41:18;;;;;;;7.18;6.47;;;22.60;99.90;;;;;;4979206;28;20364;-63
2023/05/26 08:43:49;;;;;;;6.78;6.13;;;22.50;99.90;;;;;;4984251;28;20110;-63
2023/05/26 08:46:15;;;;;;;10.95;6.80;;;22.60;99.90;;;;;;4992924;28;20125;-63
2023/05/26 08:48:41;;;;;;;7.68;5.80;;;22.60;99.90;;;;;;4984265;28;20040;-63
2023/05/26 08:51:12;;;;;;;9.65;6.45;;;22.70;99.90;;;;;;4990374;28;20207;-64
2023/05/26 08:53:39;;;;;;;6.28;5.70;;;22.70;99.90;;;;;;4986784;28;20026;-64
2023/05/26 08:56:07;;;;;;;6.10;5.30;;;22.60;99.90;;;;;;4985550;28;20228;-63
2023/05/26 08:58:34;;;;;;;6.97;5.63;;;22.70;99.90;;;;;;4978375;28;20077;-66
2023/05/26 09:01:01;;;;;;;7.32;6.55;;;22.80;99.90;;;;;;4982286;28;20484;-65
2023/05/26 09:03:27;;;;;;;6.57;5.97;;;22.90;99.90;;;;;;4981693;28;20120;-64
2023/05/26 09:05:53;;;;;;;8.05;6.32;;;22.90;99.90;;;;;;4988460;28;20030;-66
2023/05/26 09:08:19;;;;;;;5.97;5.38;;;23.00;99.90;;;;;;4990879;28;20061;-66
2023/05/26 09:10:44;;;;;;;6.90;6.15;;;23.20;99.90;;;;;;4985132;28;20036;-66
2023/05/26 09:13:13;;;;;;;6.97;5.70;;;23.10;99.90;;;;;;4998050;28;20523;-66
2023/05/26 09:15:40;;;;;;;7.13;5.60;;;23.20;99.90;;;;;;4989940;28;20038;-66
2023/05/26 09:18:10;;;;;;;6.43;5.60;;;23.20;99.90;;;;;;4993301;28;20659;-65
2023/05/26 09:20:45;;;;;;;7.32;5.75;;;23.20;99.90;;;;;;4986092;28;20570;-65
2023/05/26 09:23:11;;;;;;;8.23;6.32;;;23.30;99.90;;;;;;4996654;28;20105;-65
2023/05/26 09:25:40;;;;;;;10.27;5.93;;;23.20;99.90;;;;;;4992262;28;20133;-65
2023/05/26 09:28:11;;;;;;;9.18;5.82;;;23.20;99.90;;;;;;4984124;28;20029;-66
2023/05/26 09:30:40;;;;;;;10.13;5.97;;;23.30;99.90;;;;;;4984762;28;20153;-66
2023/05/26 09:33:09;;;;;;;6.78;5.70;;;23.40;99.90;;;;;;4992540;28;20033;-66
2023/05/26 09:35:45;;;;;;;8.88;5.43;;;23.40;99.90;;;;;;4988118;28;20145;-65
2023/05/26 09:38:13;;;;;;;5.57;5.00;;;23.40;99.90;;;;;;4998804;28;20027;-63
2023/05/26 09:40:42;;;;;;;9.50;5.60;;;23.50;99.90;;;;;;4983134;28;21310;-63
2023/05/26 09:43:08;;;;;;;6.60;6.00;;;23.60;99.90;;;;;;4979340;28;20036;-63
2023/05/26 09:45:35;;;;;;;6.03;5.43;;;23.70;99.90;;;;;;4987760;28;20026;-63
2023/05/26 09:48:03;;;;;;;6.72;5.68;;;23.80;99.90;;;;;;4995553;28;20089;-63
2023/05/26 09:50:33;;;;;;;9.68;6.00;;;23.90;99.90;;;;;;4994273;28;20030;-64
2023/05/26 09:53:04;;;;;;;6.80;5.57;;;24.00;99.90;;;;;;4994548;28;20564;-63
2023/05/26 09:55:31;;;;;;;6.20;4.65;;;24.10;99.90;;;;;;4993635;28;20560;-66
2023/05/26 09:58:07;;;;;;;6.88;5.03;;;24.10;99.90;;;;;;4996657;28;20030;-65
2023/05/26 10:00:39;;;;;;;6.90;5.32;;;24.20;99.90;;;;;;4995678;28;20235;-65
2023/05/26 10:03:07;;;;;;;7.65;4.97;;;24.10;99.90;;;;;;4993613;28;20036;-65
2023/05/26 10:05:35;;;;;;;7.30;5.10;;;24.20;99.90;;;;;;4999470;28;20033;-65
2023/05/26 10:08:02;;;;;;;6.55;5.40;;;24.30;99.90;;;;;;4999650;28;20026;-65
2023/05/26 10:10:30;;;;;;;5.60;5.07;;;24.30;99.90;;;;;;5003687;28;20063;-65
2023/05/26 10:12:57;;;;;;;5.82;4.82;;;24.20;99.90;;;;;;4995717;28;20116;-63
2023/05/26 10:15:22;;;;;;;8.45;6.40;;;24.00;99.90;;;;;;5002317;28;20092;-63
2023/05/26 10:17:49;;;;;;;8.95;4.97;;;24.10;99.90;;;;;;4993205;28;20030;-62
2023/05/26 10:20:15;;;;;;;9.75;4.78;;;24.10;99.90;;;;;;4983120;28;20033;-63
2023/05/26 10:23:09;;;;;;;4.85;4.45;;;24.10;99.90;;;;;;4995274;28;20035;-63
2023/05/26 10:25:46;;;;;;;20.77;6.10;;;24.20;99.90;;;;;;4995715;28;20276;-63
2023/05/26 10:28:17;;;;;;;5.93;5.30;;;24.30;99.90;;;;;;4997770;28;20060;-62
2023/05/26 10:30:43;;;;;;;7.35;5.80;;;24.50;99.90;;;;;;5003850;28;20033;-63
2023/05/26 10:33:10;;;;;;;6.20;5.45;;;24.60;99.90;;;;;;4995419;28;20029;-62
2023/05/26 10:35:36;;;;;;;5.70;5.10;;;24.70;99.90;;;;;;5000364;28;20557;-62
2023/05/26 10:38:01;;;;;;;7.85;4.90;;;24.70;99.90;;;;;;4997919;28;20029;-62
2023/05/26 10:40:37;;;;;;;5.32;4.38;;;24.70;99.90;;;;;;5000070;28;20711;-63
2023/05/26 10:43:11;;;;;;;5.35;4.82;;;24.70;99.90;;;;;;4993186;28;20052;-63
2023/05/26 10:45:43;;;;;;;6.15;4.32;;;24.60;99.90;;;;;;4990324;28;20030;-63
2023/05/26 10:48:10;;;;;;;5.72;4.38;;;24.70;99.90;;;;;;4996632;28;20513;-64
2023/05/26 10:50:54;;;;;;;5.85;4.70;;;24.80;99.90;;;;;;4996961;28;20036;-65
2023/05/26 10:53:25;;;;;;;6.50;4.53;;;24.70;99.90;;;;;;4993199;28;20155;-65
2023/05/26 10:56:08;;;;;;;5.22;4.72;;;24.70;99.90;;;;;;4997238;28;20549;-65
2023/05/26 10:58:34;;;;;;;5.00;4.43;;;24.70;99.20;;;;;;4995614;28;20095;-66
2023/05/26 11:01:01;;;;;;;5.57;4.88;;;24.60;99.90;;;;;;4991867;28;20562;-66
2023/05/26 11:03:38;;;;;;;5.90;4.72;;;24.60;99.90;;;;;;4997338;28;20020;-66
2023/05/26 11:06:07;;;;;;;5.18;4.32;;;24.60;99.90;;;;;;4986090;28;20037;-67
2023/05/26 11:08:49;;;;;;;4.57;4.15;;;24.70;99.90;;;;;;4997264;28;20030;-66
2023/05/26 11:11:28;;;;;;;;;;;24.90;99.90;;;;;;4997662;28;20466;-66
2023/05/26 11:14:09;;;;;;;6.45;5.32;;;25.20;99.90;;;;;;4994432;28;19967;-64
2023/05/26 11:16:37;;;;;;;4.60;4.20;;;25.30;99.80;;;;;;4988508;28;20025;-63
2023/05/26 11:19:06;;;;;;;5.85;4.40;;;25.20;99.30;;;;;;4992400;28;20072;-64
2023/05/26 11:21:34;;;;;;;5.47;4.35;;;25.20;99.30;;;;;;4993163;28;20093;-63
2023/05/26 11:24:00;;;;;;;4.80;4.40;;;25.30;98.50;;;;;;4999318;28;20566;-64
2023/05/26 11:26:30;;;;;;;5.65;4.60;;;25.30;98.20;;;;;;4990256;28;20022;-63
2023/05/26 11:28:56;;;;;;;4.75;4.20;;;25.30;99.30;;;;;;4996737;28;20058;-64
2023/05/26 11:31:25;;;;;;;4.82;4.43;;;25.40;99.50;;;;;;4993430;28;20498;-66
2023/05/26 11:33:52;;;;;;;5.18;4.55;;;25.50;97.60;;;;;;4993530;28;20031;-65
2023/05/26 11:36:18;;;;;;;7.47;4.75;;;25.40;97.70;;;;;;4999406;28;20025;-66
2023/05/26 11:39:12;;;;;;;5.78;4.57;;;25.30;98.50;;;;;;4991182;28;20426;-66
2023/05/26 11:41:38;;;;;;;7.10;4.88;;;25.30;99.90;;;;;;4994387;28;20099;-66
2023/05/26 11:44:08;;;;;;;5.43;4.93;;;25.30;99.90;;;;;;5000346;28;20382;-65
2023/05/26 11:46:37;;;;;;;5.47;3.88;;;25.30;99.50;;;;;;5003713;28;20091;-65
2023/05/26 11:49:03;;;;;;;5.30;4.40;;;25.30;98.30;;;;;;4994791;28;20037;-65
2023/05/26 11:51:31;;;;;;;5.00;4.47;;;25.30;97.20;;;;;;5001202;28;20080;-65
2023/05/26 11:53:58;;;;;;;5.10;4.45;;;25.20;97.60;;;;;;5002375;28;20080;-67
2023/05/26 11:56:35;;;;;;;4.40;3.85;;;25.20;96.70;;;;;;4996738;28;20065;-66
2023/05/26 11:59:01;;;;;;;4.50;4.10;;;25.10;98.20;;;;;;5002479;28;20037;-66
2023/05/26 12:01:28;;;;;;;6.97;4.25;;;25.10;97.80;;;;;;4993887;28;20077;-66
2023/05/26 12:03:56;;;;;;;5.47;4.47;;;25.10;96.60;;;;;;4986254;28;20329;-66
2023/05/26 12:06:24;;;;;;;4.65;4.18;;;25.20;97.20;;;;;;5003766;28;20628;-66
2023/05/26 12:08:52;;;;;;;6.70;4.50;;;25.10;97.30;;;;;;4990581;28;20033;-65
2023/05/26 12:11:21;;;;;;;4.70;4.25;;;25.20;97.20;;;;;;4988207;28;20026;-65
2023/05/26 12:13:49;;;;;;;4.75;4.05;;;25.30;97.10;;;;;;4986642;28;20041;-65
2023/05/26 12:16:30;;;;;;;5.68;4.22;;;25.50;96.80;;;;;;4988502;28;20725;-65
2023/05/26 12:18:57;;;;;;;4.88;4.38;;;25.60;96.90;;;;;;4987384;28;20149;-66
2023/05/26 12:21:24;;;;;;;4.47;3.72;;;25.80;98.50;;;;;;4993298;28;20034;-65
2023/05/26 12:23:50;;;;;;;4.40;4.00;;;25.90;95.50;;;;;;4985518;28;20124;-65
2023/05/26 12:26:22;;;;;;;4.78;4.30;;;26.00;94.40;;;;;;4986255;28;20026;-65
2023/05/26 12:29:04;;;;;;;5.00;4.47;;;25.90;95.80;;;;;;4993240;28;20363;-63
2023/05/26 12:31:46;;;;;;;4.25;3.83;;;25.90;93.50;;;;;;4998658;28;20029;-63
2023/05/26 12:34:21;;;;;;;10.70;4.00;;;25.70;93.40;;;;;;4997962;28;20037;-63
2023/05/26 12:36:48;;;;;;;4.60;4.20;;;25.80;95.40;;;;;;4996313;28;20058;-63
2023/05/26 12:39:15;;;;;;;5.72;4.43;;;25.90;94.80;;;;;;4992230;28;20199;-63
2023/05/26 12:41:41;;;;;;;4.28;3.88;;;25.90;95.50;;;;;;5003418;28;20168;-63
2023/05/26 12:44:08;;;;;;;5.40;4.80;;;26.00;95.40;;;;;;4996692;28;20034;-63
2023/05/26 12:46:34;;;;;;;4.38;4.07;;;26.00;95.30;;;;;;4999365;28;20033;-63
2023/05/26 12:49:01;;;;;;;4.38;4.07;;;26.00;94.20;;;;;;4998565;28;20699;-64